»·PEaware :: N210NB KSLC-KASE

N210NB :: KSLC-KASE

FLIGHT INFORMATION

Flight Status: Arrived
Operator: Privately registered:
United States
More flights under this callsign
Pilot: Anonymous 16446 (16446)
Aircraft: BOEING 737-200
(B732)
More flights by this aircraft type
Origin: KSLC Salt Lake City Intl
United States
Destination: KASE Aspen-Pitkin Co/Sardy
United States
More flights between these airports :: More routes between these airports
Route: SLC4 MTU HBU
File this flight plan on PilotEdge
Remarks:
Altitude:
(Current/Filed)
25,000ft
Speed:
(Current/Filed)
450kts
Departed: 19-Jan-18 11:08 PM
Arrived: 20-Jan-18 12:02 AM
Distance/Time
Traveled:
253nm/0:54
Distance/Time
To Go:
Arrived

Flight Plot

Page will automatically refresh every two minutes.

Flight plan parsing failed; only flown route is shown


Map Options




Map Legend


Flown Route
Filed Route
Departure Airport
Arrival Airport
Navaid (VOR, NDB)
Fix

Horizontal Profiles

Position Reports

Time Latitude Longitude Heading Altitude Ground
Speed
19-Jan-18 22:50 40.787356 -111.977796 269 4205ft 0kts
19-Jan-18 22:51 40.787356 -111.977796 269 4205ft 0kts
19-Jan-18 22:52 40.787356 -111.977796 269 4205ft 0kts
19-Jan-18 22:53 40.787356 -111.977796 269 4205ft 0kts
19-Jan-18 22:54 40.787356 -111.977796 269 4205ft 0kts
19-Jan-18 22:55 40.787356 -111.977796 269 4205ft 0kts
19-Jan-18 22:56 40.787356 -111.977796 269 4205ft 0kts
19-Jan-18 22:57 40.787356 -111.977796 269 4205ft 0kts
19-Jan-18 22:58 40.787356 -111.977796 269 4205ft 0kts
19-Jan-18 22:59 40.787356 -111.977796 269 4205ft 0kts
19-Jan-18 23:00 40.787356 -111.977796 269 4205ft 0kts
19-Jan-18 23:01 40.787278 -111.977508 271 4205ft 1kts
19-Jan-18 23:02 40.787400 -111.976845 206 4205ft 1kts
19-Jan-18 23:03 40.787575 -111.976821 174 4205ft 0kts
19-Jan-18 23:04 40.787575 -111.976821 174 4205ft 0kts
19-Jan-18 23:05 40.787575 -111.976821 174 4205ft 0kts
19-Jan-18 23:06 40.787575 -111.976821 174 4205ft 0kts
19-Jan-18 23:07 40.787575 -111.976821 174 4205ft 0kts
19-Jan-18 23:08 40.787575 -111.976821 174 4205ft 0kts
19-Jan-18 23:09 40.787575 -111.976821 174 4205ft 0kts
19-Jan-18 23:10 40.787575 -111.976821 174 4205ft 0kts
19-Jan-18 23:11 40.787297 -111.976784 174 4205ft 8kts
19-Jan-18 23:12 40.781373 -111.974326 149 4205ft 15kts
19-Jan-18 23:13 40.777184 -111.975623 172 4205ft 30kts
19-Jan-18 23:14 40.781011 -111.973888 354 4205ft 101kts
19-Jan-18 23:15 40.831770 -111.977134 4 4916ft 255kts
19-Jan-18 23:16 40.874316 -111.922377 80 7477ft 297kts
19-Jan-18 23:17 40.854991 -111.831595 123 10521ft 282kts
19-Jan-18 23:18 40.825171 -111.737443 112 13091ft 286kts
19-Jan-18 23:19 40.795601 -111.634776 118 15794ft 272kts
19-Jan-18 23:20 40.750746 -111.529813 127 15807ft 345kts
19-Jan-18 23:21 40.705413 -111.422847 119 18055ft 342kts
19-Jan-18 23:22 40.659454 -111.308428 124 18433ft 380kts
19-Jan-18 23:23 40.606998 -111.182777 126 19259ft 397kts
19-Jan-18 23:24 40.552516 -111.055313 126 20334ft 404kts
19-Jan-18 23:25 40.497022 -110.925757 126 21277ft 411kts
19-Jan-18 23:26 40.440354 -110.794130 127 22105ft 417kts
19-Jan-18 23:27 40.382902 -110.661285 127 22839ft 423kts
19-Jan-18 23:28 40.324328 -110.526521 127 23497ft 428kts
19-Jan-18 23:29 40.265117 -110.390884 128 24104ft 432kts
19-Jan-18 23:30 40.205092 -110.255995 136 24630ft 428kts
19-Jan-18 23:31 40.133424 -110.131273 134 24922ft 438kts
19-Jan-18 23:32 40.063357 -109.998370 132 24920ft 451kts
19-Jan-18 23:33 39.992069 -109.861508 132 24919ft 460kts
19-Jan-18 23:34 39.920012 -109.723719 132 24915ft 461kts
19-Jan-18 23:35 39.849428 -109.592903 132 24929ft 460kts
19-Jan-18 23:36 39.777110 -109.455302 132 24931ft 462kts
19-Jan-18 23:37 39.706185 -109.321460 133 24922ft 462kts
19-Jan-18 23:38 39.633018 -109.184250 133 24923ft 462kts
19-Jan-18 23:39 39.560190 -109.047570 133 24928ft 463kts
19-Jan-18 23:40 39.486846 -108.910517 133 24933ft 465kts
19-Jan-18 23:41 39.412886 -108.773070 133 24932ft 468kts
19-Jan-18 23:42 39.338674 -108.635786 133 24931ft 467kts
19-Jan-18 23:43 39.264709 -108.499172 133 24933ft 463kts
19-Jan-18 23:44 39.190952 -108.364259 133 24933ft 461kts
19-Jan-18 23:45 39.122227 -108.238692 134 24922ft 458kts
19-Jan-18 23:46 39.049115 -108.105621 134 24927ft 455kts
19-Jan-18 23:47 38.976193 -107.973325 133 24936ft 452kts
19-Jan-18 23:48 38.903858 -107.842585 132 24935ft 447kts
19-Jan-18 23:49 38.833847 -107.718254 132 24951ft 445kts
19-Jan-18 23:50 38.774110 -107.611154 132 24967ft 442kts
19-Jan-18 23:51 38.691031 -107.462726 132 24989ft 440kts
19-Jan-18 23:52 38.621208 -107.338623 132 25034ft 438kts
19-Jan-18 23:53 38.562628 -107.234632 133 25058ft 437kts
19-Jan-18 23:54 38.491682 -107.109503 132 25058ft 436kts
19-Jan-18 23:55 38.475927 -106.932896 62 25051ft 473kts
19-Jan-18 23:56 38.571295 -106.858986 356 23932ft 379kts
19-Jan-18 23:57 38.640648 -106.907423 306 21320ft 340kts
19-Jan-18 23:58 38.737592 -106.968900 1 17879ft 348kts
19-Jan-18 23:59 38.815144 -106.955756 7 16028ft 323kts
20-Jan-18 00:00 38.894136 -106.938991 7 16003ft 264kts
20-Jan-18 00:01 38.961617 -106.923873 6 15985ft 232kts
20-Jan-18 00:02 39.021474 -106.910335 4 16012ft 228kts
20-Jan-18 00:03 39.086805 -106.895579 4 16006ft 251kts
20-Jan-18 00:04 39.157659 -106.860102 34 14255ft 321kts
20-Jan-18 00:05 39.228593 -106.819139 358 11768ft 258kts
20-Jan-18 00:06 39.280371 -106.850219 285 9513ft 190kts
20-Jan-18 00:07 39.252875 -106.884125 158 7960ft 165kts
20-Jan-18 00:08 39.222478 -106.868413 148 7782ft 21kts
20-Jan-18 00:09 39.221529 -106.866771 158 7782ft 18kts
20-Jan-18 00:10 39.217835 -106.865198 157 7782ft 8kts
20-Jan-18 00:11 39.214148 -106.863933 251 7782ft 0kts
20-Jan-18 00:12 39.214148 -106.863933 251 7782ft 0kts
20-Jan-18 00:13 39.214148 -106.863933 251 7782ft 0kts
20-Jan-18 00:14 39.214148 -106.863933 251 7782ft 0kts
20-Jan-18 00:15 39.214148 -106.863933 251 7782ft 0kts
20-Jan-18 00:16 39.221218 -106.867975 337 7782ft 106kts
20-Jan-18 00:17 39.251341 -106.898640 284 8638ft 162kts
20-Jan-18 00:18 39.270490 -106.959462 266 10749ft 192kts
20-Jan-18 00:19 39.301935 -106.980799 68 12221ft 251kts
20-Jan-18 00:20 39.290627 -106.916055 114 10397ft 196kts
20-Jan-18 00:21 39.256438 -106.884788 172 8179ft 142kts
20-Jan-18 00:22 39.221258 -106.868088 155 7783ft 95kts
20-Jan-18 00:23 39.215462 -106.864097 340 7782ft 0kts

Navigation Log

Ident Type
Flight plan parsing failed, navigation log unavailable